^^
Grace C. Lehan Memorial Weather Station Historical Data
Daily Summary for November 17, 2021 Units:  Both    English   Metric
Daily Weekly Monthly Yearly
  High: Low: Average:
Temperature: 51.8 °F /  11 °C 29.9 °F /  -1.2 °C 40.4 °F /  4.7 °C
Dew Point: 41.9 °F /  5.5 °C 27.7 °F /  -2.4 °C 33 °F /  0.6 °C
Humidity: 93.5% 52.2% 76%
Wind Speed: 1.3mph /  2.1km/h - 0.1mph /  0.2km/h
Wind Gust: 7mph /  11.3km/h - -
Wind- - SSW
Pressure: 30.33 in /  1027 hPa 30.19 in /  1022.2 hPa -
Precipitation: 0.00 in /  0 mm    
 
 
Tabular Data for November 17, 2021
Time Temperature Dew Point Pressure Wind Wind Speed Wind Gust Humidity Rainfall Rate (Hourly) solar
00:04 33.4 °F /  0.8 °C 30 °F /  -1.1 °C 30.22in /  1023.2hPa Calm     87% 0.00in /  0mm 0 W/m2
00:09 33.4 °F /  0.8 °C 29.9 °F /  -1.2 °C 30.22in /  1023.2hPa Calm     87% 0.00in /  0mm 0 W/m2
00:14 33.3 °F /  0.7 °C 29.9 °F /  -1.2 °C 30.22in /  1023.2hPa Calm     87.1% 0.00in /  0mm 0 W/m2
00:19 33.3 °F /  0.7 °C 30.2 °F /  -1 °C 30.23in /  1023.6hPa Calm     88% 0.00in /  0mm 0 W/m2
00:24 33.4 °F /  0.8 °C 30.2 °F /  -1 °C 30.23in /  1023.6hPa Calm     88% 0.00in /  0mm 0 W/m2
00:29 33.3 °F /  0.7 °C 30.2 °F /  -1 °C 30.22in /  1023.2hPa Calm     88% 0.00in /  0mm 0 W/m2
00:34 33.3 °F /  0.7 °C 30.1 °F /  -1.1 °C 30.22in /  1023.2hPa Calm     88% 0.00in /  0mm 0 W/m2
00:39 33.3 °F /  0.7 °C 30.1 °F /  -1.1 °C 30.23in /  1023.6hPa Calm     88% 0.00in /  0mm 0 W/m2
00:44 33.2 °F /  0.7 °C 30.1 °F /  -1.1 °C 30.23in /  1023.6hPa Calm     88% 0.00in /  0mm 0 W/m2
00:49 33.1 °F /  0.6 °C 29.9 °F /  -1.2 °C 30.22in /  1023.2hPa Calm     88% 0.00in /  0mm 0 W/m2
00:54 32.9 °F /  0.5 °C 29.8 °F /  -1.2 °C 30.23in /  1023.6hPa Calm     88% 0.00in /  0mm 0 W/m2
00:59 32.8 °F /  0.4 °C 29.6 °F /  -1.3 °C 30.23in /  1023.6hPa Calm     88% 0.00in /  0mm 0 W/m2
01:04 32.8 °F /  0.4 °C 29.6 °F /  -1.3 °C 30.23in /  1023.6hPa Calm     88% 0.00in /  0mm 0 W/m2
01:09 32.7 °F /  0.4 °C 29.6 °F /  -1.3 °C 30.23in /  1023.6hPa Calm     88% 0.00in /  0mm 0 W/m2
01:14 32.6 °F /  0.3 °C 29.5 °F /  -1.4 °C 30.23in /  1023.6hPa Calm     88% 0.00in /  0mm 0 W/m2
01:19 32.6 °F /  0.3 °C 29.4 °F /  -1.4 °C 30.24in /  1023.9hPa Calm     88% 0.00in /  0mm 0 W/m2
01:24 32.5 °F /  0.3 °C 29.6 °F /  -1.3 °C 30.24in /  1023.9hPa Calm     88.8% 0.00in /  0mm 0 W/m2
01:29 32.6 °F /  0.3 °C 29.7 °F /  -1.3 °C 30.24in /  1023.9hPa Calm     89% 0.00in /  0mm 0 W/m2
01:34 32.6 °F /  0.3 °C 29.7 °F /  -1.3 °C 30.24in /  1023.9hPa Calm     89% 0.00in /  0mm 0 W/m2
01:39 32.7 °F /  0.4 °C 30 °F /  -1.1 °C 30.24in /  1023.9hPa Calm     89.8% 0.00in /  0mm 0 W/m2
01:44 32.7 °F /  0.4 °C 30.1 °F /  -1.1 °C 30.24in /  1023.9hPa Calm     90% 0.00in /  0mm 0 W/m2
01:49 32.7 °F /  0.4 °C 30 °F /  -1.1 °C 30.24in /  1023.9hPa Calm     89.7% 0.00in /  0mm 0 W/m2
01:54 32.5 °F /  0.3 °C 29.6 °F /  -1.3 °C 30.24in /  1023.9hPa Calm     89% 0.00in /  0mm 0 W/m2
01:59 32.3 °F /  0.2 °C 29.4 °F /  -1.4 °C 30.25in /  1024.3hPa Calm     89% 0.00in /  0mm 0 W/m2
02:04 32.1 °F /  0.1 °C 29.2 °F /  -1.6 °C 30.25in /  1024.3hPa Calm     89% 0.00in /  0mm 0 W/m2
02:09 32 °F /  0 °C 29.1 °F /  -1.6 °C 30.25in /  1024.3hPa Calm     89% 0.00in /  0mm 0 W/m2
02:14 31.9 °F /  -0.1 °C 29 °F /  -1.7 °C 30.24in /  1023.9hPa Calm     89.2% 0.00in /  0mm 0 W/m2
02:19 31.7 °F /  -0.2 °C 29.1 °F /  -1.6 °C 30.24in /  1023.9hPa Calm     89.9% 0.00in /  0mm 0 W/m2
02:24 31.7 °F /  -0.2 °C 29.1 °F /  -1.6 °C 30.24in /  1023.9hPa Calm     90% 0.00in /  0mm 0 W/m2
02:29 31.6 °F /  -0.2 °C 29.1 °F /  -1.6 °C 30.24in /  1023.9hPa Calm     90% 0.00in /  0mm 0 W/m2
02:34 31.5 °F /  -0.3 °C 28.9 °F /  -1.7 °C 30.24in /  1023.9hPa Calm     90% 0.00in /  0mm 0 W/m2
02:39 31.4 °F /  -0.3 °C 28.8 °F /  -1.8 °C 30.24in /  1023.9hPa Calm     90% 0.00in /  0mm 0 W/m2
02:44 31.4 °F /  -0.3 °C 28.8 °F /  -1.8 °C 30.24in /  1023.9hPa Calm     90.1% 0.00in /  0mm 0 W/m2
02:49 31.5 °F /  -0.3 °C 29.2 °F /  -1.6 °C 30.25in /  1024.3hPa Calm     91% 0.00in /  0mm 0 W/m2
02:54 31.6 °F /  -0.2 °C 29.2 °F /  -1.6 °C 30.24in /  1023.9hPa Calm     91% 0.00in /  0mm 0 W/m2
02:59 31.7 °F /  -0.2 °C 29.4 °F /  -1.4 °C 30.25in /  1024.3hPa Calm     91% 0.00in /  0mm 0 W/m2
03:04 31.9 °F /  -0.1 °C 29.5 °F /  -1.4 °C 30.25in /  1024.3hPa Calm     91% 0.00in /  0mm 0 W/m2
03:09 31.8 °F /  -0.1 °C 29.5 °F /  -1.4 °C 30.25in /  1024.3hPa Calm     91% 0.00in /  0mm 0 W/m2
03:14 31.8 °F /  -0.1 °C 29.3 °F /  -1.5 °C 30.25in /  1024.3hPa Calm     90.6% 0.00in /  0mm 0 W/m2
03:19 31.8 °F /  -0.1 °C 29.3 °F /  -1.5 °C 30.25in /  1024.3hPa Calm     90.3% 0.00in /  0mm 0 W/m2
03:24 31.8 °F /  -0.1 °C 29.4 °F /  -1.4 °C 30.25in /  1024.3hPa Calm     90.6% 0.00in /  0mm 0 W/m2
03:29 31.9 °F /  -0.1 °C 29.5 °F /  -1.4 °C 30.25in /  1024.3hPa Calm     90.5% 0.00in /  0mm 0 W/m2
03:34 31.9 °F /  -0.1 °C 29.3 °F /  -1.5 °C 30.25in /  1024.3hPa Calm     90% 0.00in /  0mm 0 W/m2
03:39 31.8 °F /  -0.1 °C 29.2 °F /  -1.6 °C 30.25in /  1024.3hPa Calm     90% 0.00in /  0mm 0 W/m2
03:44 31.6 °F /  -0.2 °C 29 °F /  -1.7 °C 30.25in /  1024.3hPa Calm     90% 0.00in /  0mm 0 W/m2
03:49 31.5 °F /  -0.3 °C 28.9 °F /  -1.7 °C 30.25in /  1024.3hPa Calm     90% 0.00in /  0mm 0 W/m2
03:54 31.5 °F /  -0.3 °C 28.9 °F /  -1.7 °C 30.25in /  1024.3hPa Calm     90% 0.00in /  0mm 0 W/m2
03:59 31.4 °F /  -0.3 °C 28.8 °F /  -1.8 °C 30.25in /  1024.3hPa Calm     90% 0.00in /  0mm 0 W/m2
04:09 31.3 °F /  -0.4 °C 28.7 °F /  -1.8 °C 30.25in /  1024.3hPa Calm     90% 0.00in /  0mm 0 W/m2
04:14 31.2 °F /  -0.4 °C 28.6 °F /  -1.9 °C 30.25in /  1024.3hPa Calm     90% 0.00in /  0mm 0 W/m2
04:19 31.2 °F /  -0.4 °C 28.6 °F /  -1.9 °C 30.26in /  1024.6hPa Calm     90% 0.00in /  0mm 0 W/m2
04:24 31.2 °F /  -0.4 °C 28.6 °F /  -1.9 °C 30.26in /  1024.6hPa Calm     90% 0.00in /  0mm 0 W/m2
04:29 31.1 °F /  -0.5 °C 28.5 °F /  -1.9 °C 30.26in /  1024.6hPa Calm     90% 0.00in /  0mm 0 W/m2
04:34 30.9 °F /  -0.6 °C 28.4 °F /  -2 °C 30.26in /  1024.6hPa Calm     90% 0.00in /  0mm 0 W/m2
04:39 30.8 °F /  -0.7 °C 28.2 °F /  -2.1 °C 30.26in /  1024.6hPa Calm     90% 0.00in /  0mm 0 W/m2
04:44 30.7 °F /  -0.7 °C 28.1 °F /  -2.2 °C 30.26in /  1024.6hPa Calm     90% 0.00in /  0mm 0 W/m2
04:49 30.6 °F /  -0.8 °C 28 °F /  -2.2 °C 30.26in /  1024.6hPa Calm     90% 0.00in /  0mm 0 W/m2
04:54 30.6 °F /  -0.8 °C 28.1 °F /  -2.2 °C 30.26in /  1024.6hPa Calm     90.1% 0.00in /  0mm 0 W/m2
04:59 30.5 °F /  -0.8 °C 28 °F /  -2.2 °C 30.26in /  1024.6hPa Calm     90% 0.00in /  0mm 0 W/m2
05:04 30.5 °F /  -0.8 °C 28.1 °F /  -2.2 °C 30.26in /  1024.6hPa Calm     90.7% 0.00in /  0mm 0 W/m2
05:09 30.5 °F /  -0.8 °C 28.2 °F /  -2.1 °C 30.26in /  1024.6hPa Calm     91% 0.00in /  0mm 0 W/m2
05:14 30.5 °F /  -0.8 °C 28.1 °F /  -2.2 °C 30.26in /  1024.6hPa Calm     91% 0.00in /  0mm 0 W/m2
05:19 30.4 °F /  -0.9 °C 28.1 °F /  -2.2 °C 30.26in /  1024.6hPa Calm     91% 0.00in /  0mm 0 W/m2
05:24 30.4 °F /  -0.9 °C 28.1 °F /  -2.2 °C 30.26in /  1024.6hPa Calm     91% 0.00in /  0mm 0 W/m2
05:29 30.4 °F /  -0.9 °C 28.1 °F /  -2.2 °C 30.27in /  1024.9hPa Calm     91% 0.00in /  0mm 0 W/m2
05:34 30.4 °F /  -0.9 °C 28.1 °F /  -2.2 °C 30.27in /  1024.9hPa Calm     91% 0.00in /  0mm 0 W/m2
05:39 30.4 °F /  -0.9 °C 28.1 °F /  -2.2 °C 30.28in /  1025.3hPa Calm     91% 0.00in /  0mm 0 W/m2
05:44 30.4 °F /  -0.9 °C 28.1 °F /  -2.2 °C 30.28in /  1025.3hPa Calm     91% 0.00in /  0mm 0 W/m2
05:49 30.3 °F /  -0.9 °C 28 °F /  -2.2 °C 30.28in /  1025.3hPa Calm     91% 0.00in /  0mm 0 W/m2
05:54 30.3 °F /  -0.9 °C 27.9 °F /  -2.3 °C 30.28in /  1025.3hPa Calm     91% 0.00in /  0mm 0 W/m2
05:59 30.2 °F /  -1 °C 27.9 °F /  -2.3 °C 30.29in /  1025.6hPa Calm     91% 0.00in /  0mm 0 W/m2
06:04 30.1 °F /  -1.1 °C 27.8 °F /  -2.3 °C 30.29in /  1025.6hPa Calm     91% 0.00in /  0mm 0 W/m2
06:09 30.1 °F /  -1.1 °C 27.8 °F /  -2.3 °C 30.29in /  1025.6hPa Calm     91% 0.00in /  0mm 0 W/m2
06:14 30.1 °F /  -1.1 °C 28 °F /  -2.2 °C 30.29in /  1025.6hPa Calm     91.9% 0.00in /  0mm 0 W/m2
06:19 30 °F /  -1.1 °C 28 °F /  -2.2 °C 30.29in /  1025.6hPa Calm     92% 0.00in /  0mm 0 W/m2
06:24 30 °F /  -1.1 °C 27.7 °F /  -2.4 °C 30.29in /  1025.6hPa Calm     91.2% 0.00in /  0mm 0 W/m2
06:29 29.9 °F /  -1.2 °C 27.8 °F /  -2.3 °C 30.28in /  1025.3hPa Calm     91.8% 0.00in /  0mm 0 W/m2
06:34 29.9 °F /  -1.2 °C 27.9 °F /  -2.3 °C 30.29in /  1025.6hPa Calm     92% 0.00in /  0mm 0 W/m2
06:39 30 °F /  -1.1 °C 28 °F /  -2.2 °C 30.29in /  1025.6hPa Calm     92% 0.00in /  0mm 0 W/m2
06:44 30.3 °F /  -0.9 °C 28.2 °F /  -2.1 °C 30.29in /  1025.6hPa Calm     92% 0.00in /  0mm 0 W/m2
06:49 30.6 °F /  -0.8 °C 28.6 °F /  -1.9 °C 30.29in /  1025.6hPa Calm     92.4% 0.00in /  0mm 5 W/m2
06:54 30.7 °F /  -0.7 °C 28.9 °F /  -1.7 °C 30.30in /  1026hPa Calm     93% 0.00in /  0mm 9 W/m2
06:59 30.6 °F /  -0.8 °C 28.7 °F /  -1.8 °C 30.30in /  1026hPa Calm     92.3% 0.00in /  0mm 11 W/m2
07:04 30.6 °F /  -0.8 °C 28.5 °F /  -1.9 °C 30.30in /  1026hPa Calm     92% 0.00in /  0mm 14 W/m2
07:09 30.5 °F /  -0.8 °C 28.5 °F /  -1.9 °C 30.30in /  1026hPa Calm     92% 0.00in /  0mm 21 W/m2
07:14 30.5 °F /  -0.8 °C 28.5 °F /  -1.9 °C 30.31in /  1026.3hPa Calm     92% 0.00in /  0mm 23 W/m2
07:19 30.6 °F /  -0.8 °C 28.8 °F /  -1.8 °C 30.31in /  1026.3hPa Calm     92.9% 0.00in /  0mm 25 W/m2
07:24 30.7 °F /  -0.7 °C 28.9 °F /  -1.7 °C 30.32in /  1026.6hPa Calm     92.6% 0.00in /  0mm 39 W/m2
07:29 30.9 °F /  -0.6 °C 29.1 °F /  -1.6 °C 30.32in /  1026.6hPa Calm     93% 0.00in /  0mm 39 W/m2
07:34 31.1 °F /  -0.5 °C 29.3 °F /  -1.5 °C 30.32in /  1026.6hPa Calm     93% 0.00in /  0mm 39 W/m2
07:39 31.3 °F /  -0.4 °C 29.5 °F /  -1.4 °C 30.32in /  1026.6hPa Calm     93% 0.00in /  0mm 39 W/m2
07:44 31.6 °F /  -0.2 °C 29.8 °F /  -1.2 °C 30.32in /  1026.6hPa Calm     93% 0.00in /  0mm 63 W/m2
07:49 31.9 °F /  -0.1 °C 30.1 °F /  -1.1 °C 30.32in /  1026.6hPa Calm     93% 0.00in /  0mm 62 W/m2
07:54 32.2 °F /  0.1 °C 30.4 °F /  -0.9 °C 30.32in /  1026.6hPa Calm     93% 0.00in /  0mm 90 W/m2
07:59 32.6 °F /  0.3 °C 30.9 °F /  -0.6 °C 30.32in /  1026.6hPa Calm     93% 0.00in /  0mm 163 W/m2
08:00 32.9 °F /  0.5 °C 31.1 °F /  -0.5 °C 30.32in /  1026.6hPa Calm     93% 0.00in /  0mm 151 W/m2
08:09 34 °F /  1.1 °C 32.2 °F /  0.1 °C 30.32in /  1026.6hPa Calm     93% 0.00in /  0mm 195 W/m2
08:14 34.9 °F /  1.6 °C 33.2 °F /  0.7 °C 30.32in /  1026.6hPa Calm     93.5% 0.00in /  0mm 216 W/m2
08:19 36.1 °F /  2.3 °C 34.3 °F /  1.3 °C 30.32in /  1026.6hPa Calm     93.2% 0.00in /  0mm 237 W/m2
08:24 37.3 °F /  2.9 °C 35.2 °F /  1.8 °C 30.32in /  1026.6hPa Calm     92% 0.00in /  0mm 248 W/m2
08:29 38.4 °F /  3.6 °C 35.7 °F /  2.1 °C 30.32in /  1026.6hPa Calm     89.9% 0.00in /  0mm 258 W/m2
08:34 39.5 °F /  4.2 °C 35.8 °F /  2.1 °C 30.32in /  1026.6hPa Calm     86.5% 0.00in /  0mm 271 W/m2
08:39 40.5 °F /  4.7 °C 35.9 °F /  2.2 °C 30.32in /  1026.6hPa Calm     83.3% 0.00in /  0mm 281 W/m2
08:44 41.4 °F /  5.2 °C 35.8 °F /  2.1 °C 30.33in /  1027hPa Calm     80.5% 0.00in /  0mm 292 W/m2
08:49 42.2 °F /  5.7 °C 36.2 °F /  2.3 °C 30.33in /  1027hPa Calm     78.9% 0.00in /  0mm 302 W/m2
08:54 42.8 °F /  6 °C 35.7 °F /  2.1 °C 30.33in /  1027hPa Calm     75.7% 0.00in /  0mm 302 W/m2
08:59 43.2 °F /  6.2 °C 35.8 °F /  2.1 °C 30.32in /  1026.6hPa Calm     75% 0.00in /  0mm 285 W/m2
09:04 43.4 °F /  6.3 °C 35.8 °F /  2.1 °C 30.32in /  1026.6hPa Calm     74.3% 0.00in /  0mm 294 W/m2
09:09 43.4 °F /  6.3 °C 35.3 °F /  1.8 °C 30.32in /  1026.6hPa Calm     73% 0.00in /  0mm 172 W/m2
09:14 43.4 °F /  6.3 °C 35.7 °F /  2.1 °C 30.32in /  1026.6hPa Calm     73.9% 0.00in /  0mm 246 W/m2
09:19 43.5 °F /  6.4 °C 35.5 °F /  1.9 °C 30.32in /  1026.6hPa Calm     73.1% 0.00in /  0mm 272 W/m2
09:24 43.3 °F /  6.3 °C 34.5 °F /  1.4 °C 30.32in /  1026.6hPa Calm     70.9% 0.00in /  0mm 167 W/m2
09:29 43.1 °F /  6.2 °C 34.4 °F /  1.3 °C 30.32in /  1026.6hPa Calm     71.2% 0.00in /  0mm 114 W/m2
09:34 42.9 °F /  6.1 °C 34.2 °F /  1.2 °C 30.32in /  1026.6hPa Calm     71.1% 0.00in /  0mm 105 W/m2
09:39 42.5 °F /  5.8 °C 33.6 °F /  0.9 °C 30.32in /  1026.6hPa Calm     70.3% 0.00in /  0mm 105 W/m2
09:44 42.2 °F /  5.7 °C 33.3 °F /  0.7 °C 30.32in /  1026.6hPa Calm     70.3% 0.00in /  0mm 134 W/m2
09:49 42 °F /  5.6 °C 33.5 °F /  0.8 °C 30.32in /  1026.6hPa Calm     71.5% 0.00in /  0mm 167 W/m2
09:54 41.9 °F /  5.5 °C 33.6 °F /  0.9 °C 30.32in /  1026.6hPa Calm     72% 0.00in /  0mm 207 W/m2
09:59 42 °F /  5.6 °C 33.5 °F /  0.8 °C 30.32in /  1026.6hPa Calm     71.7% 0.00in /  0mm 229 W/m2
10:04 42.1 °F /  5.6 °C 33.5 °F /  0.8 °C 30.32in /  1026.6hPa Calm     71.1% 0.00in /  0mm 211 W/m2
10:09 42.3 °F /  5.7 °C 33.6 °F /  0.9 °C 30.31in /  1026.3hPa Calm     71% 0.00in /  0mm 193 W/m2
10:14 42.5 °F /  5.8 °C 34.2 °F /  1.2 °C 30.31in /  1026.3hPa Calm     72.1% 0.00in /  0mm 172 W/m2
10:19 42.9 °F /  6.1 °C 34.6 °F /  1.4 °C 30.31in /  1026.3hPa Calm     72.3% 0.00in /  0mm 156 W/m2
10:24 43.1 °F /  6.2 °C 34.2 °F /  1.2 °C 30.31in /  1026.3hPa WSW 0.1mph /  0.2km/h 2mph /  3.2km/h 70.7% 0.00in /  0mm 146 W/m2
10:29 43.3 °F /  6.3 °C 34.3 °F /  1.3 °C 30.30in /  1026hPa Calm   2mph /  3.2km/h 70.3% 0.00in /  0mm 144 W/m2
10:34 43.4 °F /  6.3 °C 34 °F /  1.1 °C 30.30in /  1026hPa Calm   2mph /  3.2km/h 69.1% 0.00in /  0mm 148 W/m2
10:39 43.5 °F /  6.4 °C 33.6 °F /  0.9 °C 30.30in /  1026hPa Calm     67.9% 0.00in /  0mm 149 W/m2
10:44 43.6 °F /  6.4 °C 33.7 °F /  0.9 °C 30.30in /  1026hPa Calm     67.9% 0.00in /  0mm 160 W/m2
10:49 43.7 °F /  6.5 °C 34.1 °F /  1.2 °C 30.30in /  1026hPa WSW 0.1mph /  0.2km/h 2mph /  3.2km/h 68.6% 0.00in /  0mm 165 W/m2
10:54 44 °F /  6.7 °C 34.4 °F /  1.3 °C 30.30in /  1026hPa Calm   2mph /  3.2km/h 68.6% 0.00in /  0mm 165 W/m2
10:59 44.3 °F /  6.8 °C 34.5 °F /  1.4 °C 30.31in /  1026.3hPa Calm   2mph /  3.2km/h 68.3% 0.00in /  0mm 156 W/m2
11:04 44.6 °F /  7 °C 34.6 °F /  1.4 °C 30.30in /  1026hPa Calm   2mph /  3.2km/h 67.7% 0.00in /  0mm 148 W/m2
11:09 44.7 °F /  7.1 °C 33.8 °F /  1 °C 30.30in /  1026hPa Calm     65.4% 0.00in /  0mm 162 W/m2
11:14 44.8 °F /  7.1 °C 33.9 °F /  1.1 °C 30.30in /  1026hPa Calm     65.4% 0.00in /  0mm 193 W/m2
11:19 44.9 °F /  7.2 °C 33.9 °F /  1.1 °C 30.30in /  1026hPa Calm     65.1% 0.00in /  0mm 243 W/m2
11:24 45.1 °F /  7.3 °C 34.5 °F /  1.4 °C 30.30in /  1026hPa Calm     66% 0.00in /  0mm 246 W/m2
11:29 45.5 °F /  7.5 °C 33.9 °F /  1.1 °C 30.30in /  1026hPa Calm     63.7% 0.00in /  0mm 214 W/m2
11:34 45.8 °F /  7.7 °C 33.6 °F /  0.9 °C 30.29in /  1025.6hPa WSW 0.7mph /  1.1km/h 4mph /  6.4km/h 62.2% 0.00in /  0mm 248 W/m2
11:39 46.1 °F /  7.8 °C 34.1 °F /  1.2 °C 30.29in /  1025.6hPa WSW 0.3mph /  0.5km/h 4mph /  6.4km/h 62.5% 0.00in /  0mm 220 W/m2
11:44 46.5 °F /  8.1 °C 33.8 °F /  1 °C 30.28in /  1025.3hPa Calm   4mph /  6.4km/h 61.1% 0.00in /  0mm 272 W/m2
11:49 46.8 °F /  8.2 °C 33.9 °F /  1.1 °C 30.28in /  1025.3hPa Calm   4mph /  6.4km/h 60.4% 0.00in /  0mm 272 W/m2
11:54 47.2 °F /  8.4 °C 33.8 °F /  1 °C 30.28in /  1025.3hPa SW 0.2mph /  0.3km/h 4mph /  6.4km/h 59.5% 0.00in /  0mm 227 W/m2
11:59 47.4 °F /  8.6 °C 34 °F /  1.1 °C 30.28in /  1025.3hPa SW 0.4mph /  0.6km/h 4mph /  6.4km/h 59.4% 0.00in /  0mm 232 W/m2
12:00 47.6 °F /  8.7 °C 33.6 °F /  0.9 °C 30.27in /  1024.9hPa Calm   4mph /  6.4km/h 58% 0.00in /  0mm 223 W/m2
12:09 48 °F /  8.9 °C 34.3 °F /  1.3 °C 30.27in /  1024.9hPa SW 0.5mph /  0.8km/h 3mph /  4.8km/h 58.8% 0.00in /  0mm 214 W/m2
12:14 48.3 °F /  9.1 °C 33.9 °F /  1.1 °C 30.26in /  1024.6hPa SW 0.1mph /  0.2km/h 3mph /  4.8km/h 57.4% 0.00in /  0mm 225 W/m2
12:19 48.5 °F /  9.2 °C 33.8 °F /  1 °C 30.26in /  1024.6hPa SW 0.1mph /  0.2km/h 3mph /  4.8km/h 56.6% 0.00in /  0mm 241 W/m2
12:24 48.5 °F /  9.2 °C 33.5 °F /  0.8 °C 30.26in /  1024.6hPa SSW 1mph /  1.6km/h 5mph /  8km/h 56% 0.00in /  0mm 248 W/m2
12:29 48.5 °F /  9.2 °C 33.3 °F /  0.7 °C 30.26in /  1024.6hPa SSW 0.4mph /  0.6km/h 5mph /  8km/h 55.3% 0.00in /  0mm 199 W/m2
12:34 48.6 °F /  9.2 °C 33.8 °F /  1 °C 30.25in /  1024.3hPa Calm   5mph /  8km/h 56.3% 0.00in /  0mm 190 W/m2
12:39 48.9 °F /  9.4 °C 33.9 °F /  1.1 °C 30.25in /  1024.3hPa South 0.7mph /  1.1km/h 5mph /  8km/h 56% 0.00in /  0mm 178 W/m2
12:44 49 °F /  9.4 °C 33.9 °F /  1.1 °C 30.25in /  1024.3hPa South 0.5mph /  0.8km/h 5mph /  8km/h 55.7% 0.00in /  0mm 179 W/m2
12:49 49.1 °F /  9.5 °C 33.5 °F /  0.8 °C 30.24in /  1023.9hPa South 1mph /  1.6km/h 5mph /  8km/h 54.6% 0.00in /  0mm 183 W/m2
12:54 49.3 °F /  9.6 °C 33.4 °F /  0.8 °C 30.24in /  1023.9hPa SSW 1mph /  1.6km/h 5mph /  8km/h 54.1% 0.00in /  0mm 190 W/m2
12:59 49.6 °F /  9.8 °C 33.8 °F /  1 °C 30.24in /  1023.9hPa SSW 0.1mph /  0.2km/h 5mph /  8km/h 54.3% 0.00in /  0mm 186 W/m2
13:04 49.7 °F /  9.8 °C 34 °F /  1.1 °C 30.24in /  1023.9hPa SSW 0.2mph /  0.3km/h 5mph /  8km/h 54.5% 0.00in /  0mm 174 W/m2
13:09 49.7 °F /  9.8 °C 33.5 °F /  0.8 °C 30.24in /  1023.9hPa South 0.7mph /  1.1km/h 5mph /  8km/h 53.3% 0.00in /  0mm 190 W/m2
13:14 49.8 °F /  9.9 °C 33.9 °F /  1.1 °C 30.23in /  1023.6hPa SW 0.6mph /  1km/h 7mph /  11.3km/h 54% 0.00in /  0mm 207 W/m2
13:19 50 °F /  10 °C 33.8 °F /  1 °C 30.23in /  1023.6hPa South 0.4mph /  0.6km/h 7mph /  11.3km/h 53.4% 0.00in /  0mm 225 W/m2
13:24 50.2 °F /  10.1 °C 33.9 °F /  1.1 °C 30.23in /  1023.6hPa SSE 0.1mph /  0.2km/h 7mph /  11.3km/h 53.2% 0.00in /  0mm 241 W/m2
13:29 50.5 °F /  10.3 °C 33.6 °F /  0.9 °C 30.23in /  1023.6hPa Calm   7mph /  11.3km/h 52.3% 0.00in /  0mm 197 W/m2
13:34 50.6 °F /  10.3 °C 33.8 °F /  1 °C 30.23in /  1023.6hPa SE 0.7mph /  1.1km/h 7mph /  11.3km/h 52.2% 0.00in /  0mm 199 W/m2
13:39 50.8 °F /  10.4 °C 34.1 °F /  1.2 °C 30.23in /  1023.6hPa SSE 0.4mph /  0.6km/h 6mph /  9.7km/h 52.7% 0.00in /  0mm 144 W/m2
13:44 50.8 °F /  10.4 °C 34.6 °F /  1.4 °C 30.23in /  1023.6hPa SSE 0.3mph /  0.5km/h 6mph /  9.7km/h 53.5% 0.00in /  0mm 135 W/m2
13:49 50.8 °F /  10.4 °C 35 °F /  1.7 °C 30.22in /  1023.2hPa SSE 0.6mph /  1km/h 6mph /  9.7km/h 54.5% 0.00in /  0mm 139 W/m2
13:54 50.8 °F /  10.4 °C 35.6 °F /  2 °C 30.22in /  1023.2hPa SSE 0.8mph /  1.3km/h 6mph /  9.7km/h 55.8% 0.00in /  0mm 137 W/m2
13:59 50.8 °F /  10.4 °C 36 °F /  2.2 °C 30.22in /  1023.2hPa South 0.2mph /  0.3km/h 6mph /  9.7km/h 56.8% 0.00in /  0mm 135 W/m2
14:04 50.8 °F /  10.4 °C 36.3 °F /  2.4 °C 30.22in /  1023.2hPa SSE 0.2mph /  0.3km/h 6mph /  9.7km/h 57.4% 0.00in /  0mm 134 W/m2
14:09 50.9 °F /  10.5 °C 37.1 °F /  2.8 °C 30.22in /  1023.2hPa SSE 0.5mph /  0.8km/h 4mph /  6.4km/h 59% 0.00in /  0mm 127 W/m2
14:14 50.9 °F /  10.5 °C 37.5 °F /  3.1 °C 30.21in /  1022.9hPa South 0.5mph /  0.8km/h 4mph /  6.4km/h 59.8% 0.00in /  0mm 116 W/m2
14:19 51 °F /  10.6 °C 37.6 °F /  3.1 °C 30.22in /  1023.2hPa South 0.3mph /  0.5km/h 4mph /  6.4km/h 60% 0.00in /  0mm 116 W/m2
14:24 51 °F /  10.6 °C 37.8 °F /  3.2 °C 30.22in /  1023.2hPa South 1.3mph /  2.1km/h 4mph /  6.4km/h 60.4% 0.00in /  0mm 121 W/m2
14:29 51 °F /  10.6 °C 38 °F /  3.3 °C 30.22in /  1023.2hPa South 0.7mph /  1.1km/h 4mph /  6.4km/h 61% 0.00in /  0mm 114 W/m2
14:34 51.1 °F /  10.6 °C 38.5 °F /  3.6 °C 30.22in /  1023.2hPa South 0.9mph /  1.4km/h 6mph /  9.7km/h 61.9% 0.00in /  0mm 109 W/m2
14:39 51.2 °F /  10.7 °C 38.6 °F /  3.7 °C 30.22in /  1023.2hPa SW 1.1mph /  1.8km/h 6mph /  9.7km/h 61.9% 0.00in /  0mm 114 W/m2
14:44 51.3 °F /  10.7 °C 38.2 °F /  3.4 °C 30.22in /  1023.2hPa SSW 0.7mph /  1.1km/h 6mph /  9.7km/h 60.6% 0.00in /  0mm 114 W/m2
14:49 51.5 °F /  10.8 °C 38.2 °F /  3.4 °C 30.21in /  1022.9hPa South 0.5mph /  0.8km/h 6mph /  9.7km/h 60.3% 0.00in /  0mm 111 W/m2
14:54 51.6 °F /  10.9 °C 38.5 °F /  3.6 °C 30.22in /  1023.2hPa South 0.1mph /  0.2km/h 6mph /  9.7km/h 60.9% 0.00in /  0mm 107 W/m2
14:59 51.7 °F /  10.9 °C 38.2 °F /  3.4 °C 30.22in /  1023.2hPa South 0.6mph /  1km/h 6mph /  9.7km/h 59.8% 0.00in /  0mm 116 W/m2
15:04 51.8 °F /  11 °C 37.2 °F /  2.9 °C 30.22in /  1023.2hPa South 1.1mph /  1.8km/h 6mph /  9.7km/h 57.2% 0.00in /  0mm 118 W/m2
15:09 51.8 °F /  11 °C 37 °F /  2.8 °C 30.22in /  1023.2hPa SSW 1mph /  1.6km/h 7mph /  11.3km/h 56.7% 0.00in /  0mm 107 W/m2
15:14 51.8 °F /  11 °C 36.9 °F /  2.7 °C 30.21in /  1022.9hPa SW 1.3mph /  2.1km/h 7mph /  11.3km/h 56.6% 0.00in /  0mm 97 W/m2
15:19 51.8 °F /  11 °C 37 °F /  2.8 °C 30.21in /  1022.9hPa SSW 0.8mph /  1.3km/h 7mph /  11.3km/h 56.9% 0.00in /  0mm 86 W/m2
15:30 51.7 °F /  10.9 °C 37 °F /  2.8 °C 30.21in /  1022.9hPa South 1mph /  1.6km/h 7mph /  11.3km/h 57% 0.00in /  0mm 83 W/m2
16:04 51.1 °F /  10.6 °C 37.7 °F /  3.2 °C 30.21in /  1022.9hPa South 0.1mph /  0.2km/h 7mph /  11.3km/h 59.8% 0.00in /  0mm 83 W/m2
16:09 51.1 °F /  10.6 °C 37.7 °F /  3.2 °C 30.22in /  1023.2hPa Calm   1mph /  1.6km/h 60% 0.00in /  0mm 12 W/m2
16:14 51 °F /  10.6 °C 37.6 °F /  3.1 °C 30.21in /  1022.9hPa Calm   2mph /  3.2km/h 60% 0.00in /  0mm 11 W/m2
16:19 51 °F /  10.6 °C 37.6 °F /  3.1 °C 30.21in /  1022.9hPa South 0.1mph /  0.2km/h 2mph /  3.2km/h 60% 0.00in /  0mm 9 W/m2
16:24 50.9 °F /  10.5 °C 37.5 °F /  3.1 °C 30.21in /  1022.9hPa South 0.5mph /  0.8km/h 4mph /  6.4km/h 60% 0.00in /  0mm 7 W/m2
16:29 50.9 °F /  10.5 °C 37.5 °F /  3.1 °C 30.21in /  1022.9hPa Calm   4mph /  6.4km/h 60% 0.00in /  0mm 5 W/m2
16:34 50.8 °F /  10.4 °C 37.8 °F /  3.2 °C 30.21in /  1022.9hPa Calm   4mph /  6.4km/h 60.8% 0.00in /  0mm 0 W/m2
16:39 50.7 °F /  10.4 °C 37.8 °F /  3.2 °C 30.20in /  1022.6hPa Calm     61% 0.00in /  0mm 0 W/m2
16:44 50.6 °F /  10.3 °C 38.1 °F /  3.4 °C 30.20in /  1022.6hPa Calm   1mph /  1.6km/h 62.1% 0.00in /  0mm 0 W/m2
16:49 50.6 °F /  10.3 °C 38.5 °F /  3.6 °C 30.20in /  1022.6hPa Calm   1mph /  1.6km/h 63% 0.00in /  0mm 0 W/m2
16:54 50.5 °F /  10.3 °C 38.7 °F /  3.7 °C 30.20in /  1022.6hPa South 0.2mph /  0.3km/h 2mph /  3.2km/h 63.8% 0.00in /  0mm 0 W/m2
16:59 50.5 °F /  10.3 °C 39 °F /  3.9 °C 30.21in /  1022.9hPa Calm   2mph /  3.2km/h 64.4% 0.00in /  0mm 0 W/m2
17:04 50.5 °F /  10.3 °C 39.2 °F /  4 °C 30.21in /  1022.9hPa South 0.1mph /  0.2km/h 3mph /  4.8km/h 65% 0.00in /  0mm 0 W/m2
17:09 50.5 °F /  10.3 °C 39.4 °F /  4.1 °C 30.21in /  1022.9hPa South 0.2mph /  0.3km/h 3mph /  4.8km/h 65.6% 0.00in /  0mm 0 W/m2
17:14 50.6 °F /  10.3 °C 39.6 °F /  4.2 °C 30.20in /  1022.6hPa South 0.4mph /  0.6km/h 6mph /  9.7km/h 66% 0.00in /  0mm 0 W/m2
17:19 50.6 °F /  10.3 °C 39.7 °F /  4.3 °C 30.20in /  1022.6hPa South 0.3mph /  0.5km/h 6mph /  9.7km/h 66% 0.00in /  0mm 0 W/m2
17:24 50.7 °F /  10.4 °C 39.8 °F /  4.3 °C 30.20in /  1022.6hPa South 0.3mph /  0.5km/h 6mph /  9.7km/h 66.1% 0.00in /  0mm 0 W/m2
17:29 50.6 °F /  10.3 °C 40.1 °F /  4.5 °C 30.20in /  1022.6hPa South 0.1mph /  0.2km/h 6mph /  9.7km/h 67% 0.00in /  0mm 0 W/m2
17:34 50.6 °F /  10.3 °C 40.1 °F /  4.5 °C 30.20in /  1022.6hPa Calm   6mph /  9.7km/h 67% 0.00in /  0mm 0 W/m2
17:39 50.5 °F /  10.3 °C 40.3 °F /  4.6 °C 30.20in /  1022.6hPa Calm   1mph /  1.6km/h 67.7% 0.00in /  0mm 0 W/m2
17:44 50.5 °F /  10.3 °C 40.3 °F /  4.6 °C 30.19in /  1022.2hPa Calm   1mph /  1.6km/h 68% 0.00in /  0mm 0 W/m2
17:49 50.5 °F /  10.3 °C 40.3 °F /  4.6 °C 30.20in /  1022.6hPa Calm   1mph /  1.6km/h 68% 0.00in /  0mm 0 W/m2
17:54 50.5 °F /  10.3 °C 40.3 °F /  4.6 °C 30.19in /  1022.2hPa Calm   1mph /  1.6km/h 68% 0.00in /  0mm 0 W/m2
17:59 50.5 °F /  10.3 °C 40.6 °F /  4.8 °C 30.19in /  1022.2hPa South 0.1mph /  0.2km/h 2mph /  3.2km/h 68.6% 0.00in /  0mm 0 W/m2
18:04 50.5 °F /  10.3 °C 40.7 °F /  4.8 °C 30.19in /  1022.2hPa Calm   2mph /  3.2km/h 69% 0.00in /  0mm 0 W/m2
18:09 50.6 °F /  10.3 °C 40.8 °F /  4.9 °C 30.20in /  1022.6hPa Calm     69% 0.00in /  0mm 0 W/m2
18:14 50.5 °F /  10.3 °C 40.8 °F /  4.9 °C 30.19in /  1022.2hPa Calm     69% 0.00in /  0mm 0 W/m2
18:19 50.6 °F /  10.3 °C 41.2 °F /  5.1 °C 30.19in /  1022.2hPa Calm     70% 0.00in /  0mm 0 W/m2
18:24 50.6 °F /  10.3 °C 41.2 °F /  5.1 °C 30.19in /  1022.2hPa Calm     70% 0.00in /  0mm 0 W/m2
18:29 50.7 °F /  10.4 °C 41.3 °F /  5.2 °C 30.19in /  1022.2hPa Calm     70% 0.00in /  0mm 0 W/m2
18:33 50.8 °F /  10.4 °C 41.5 °F /  5.3 °C 30.19in /  1022.2hPa Calm     70.5% 0.00in /  0mm 0 W/m2
18:38 50.9 °F /  10.5 °C 41.9 °F /  5.5 °C 30.20in /  1022.6hPa Calm     71% 0.00in /  0mm 0 W/m2
Hartford County Weather
Compliments of Weather Underground - 2 mb